createdAt,value
2019-04-19T00:01:22.672Z,48.50
2019-04-19T00:03:53.211Z,48.20
2019-04-19T00:06:34.639Z,48.40
2019-04-19T00:09:16.684Z,48.40
2019-04-19T00:11:40.329Z,48.30
2019-04-19T00:14:04.367Z,48.40
2019-04-19T00:16:34.099Z,48.80
2019-04-19T00:19:26.884Z,48.80
2019-04-19T00:21:59.739Z,48.70
2019-04-19T00:24:05.881Z,48.90
2019-04-19T00:26:35.966Z,48.80
2019-04-19T00:29:11.886Z,48.90
2019-04-19T00:31:45.239Z,48.90
2019-04-19T00:34:08.384Z,48.60
2019-04-19T00:36:38.414Z,49.10
2019-04-19T00:39:27.944Z,49.00
2019-04-19T00:42:04.954Z,49.00
2019-04-19T00:44:38.603Z,48.90
2019-04-19T00:47:09.147Z,49.20
2019-04-19T00:49:28.768Z,49.10
2019-04-19T00:52:06.188Z,48.90
2019-04-19T00:54:30.129Z,49.30
2019-04-19T00:56:59.708Z,49.60
2019-04-19T00:59:31.951Z,49.40
2019-04-19T01:02:04.849Z,49.70
2019-04-19T01:04:29.948Z,50.10
2019-04-19T01:07:00.863Z,49.70
2019-04-19T01:09:43.475Z,49.80
2019-04-19T01:12:15.135Z,49.80
2019-04-19T01:14:40.383Z,49.70
2019-04-19T01:17:16.581Z,49.90
2019-04-19T01:19:34.211Z,50.50
2019-04-19T01:22:12.886Z,50.20
2019-04-19T01:24:39.355Z,50.40
2019-04-19T01:27:06.905Z,50.20
2019-04-19T01:29:41.617Z,50.50
2019-04-19T01:32:12.900Z,50.70
2019-04-19T01:34:39.558Z,51.00
2019-04-19T01:37:11.274Z,51.20
2019-04-19T01:40:02.933Z,51.30
2019-04-19T01:42:31.256Z,50.80
2019-04-19T01:45:17.299Z,50.90
2019-04-19T01:48:06.127Z,51.40
2019-04-19T01:50:38.170Z,51.20
2019-04-19T01:53:19.351Z,51.50
2019-04-19T01:55:30.194Z,51.40
2019-04-19T01:58:02.454Z,51.80
2019-04-19T02:00:37.170Z,51.90
2019-04-19T02:03:02.355Z,51.80
2019-04-19T02:05:29.720Z,51.70
2019-04-19T02:08:04.575Z,51.90
2019-04-19T02:11:20.188Z,51.80
2019-04-19T02:13:50.116Z,51.70
2019-04-19T02:16:14.950Z,52.20
2019-04-19T02:18:41.065Z,52.10
2019-04-19T02:21:15.019Z,52.40
2019-04-19T02:23:49.638Z,52.40
2019-04-19T02:26:18.411Z,52.30
2019-04-19T02:28:45.828Z,52.60
2019-04-19T02:31:37.291Z,52.20
2019-04-19T02:39:29.174Z,52.40
2019-04-19T02:42:12.158Z,52.50
2019-04-19T02:44:38.340Z,52.30
2019-04-19T02:47:08.842Z,52.70
2019-04-19T02:52:11.479Z,52.60
2019-04-19T02:54:40.871Z,52.60
2019-04-19T02:57:29.477Z,52.60
2019-04-19T03:00:04.508Z,52.60
2019-04-19T03:07:23.839Z,52.70
2019-04-19T03:09:53.743Z,52.60
2019-04-19T03:12:42.732Z,52.40
2019-04-19T03:15:10.081Z,52.60
2019-04-19T03:17:44.522Z,52.40
2019-04-19T03:20:10.898Z,52.40
2019-04-19T03:22:43.619Z,52.40
2019-04-19T03:25:17.265Z,52.60
2019-04-19T03:27:43.120Z,52.40
2019-04-19T03:30:14.531Z,52.80
2019-04-19T03:33:07.191Z,52.60
2019-04-19T03:35:18.004Z,52.50
2019-04-19T03:38:00.451Z,52.70
2019-04-19T03:40:33.093Z,52.80
2019-04-19T03:42:54.176Z,52.60
2019-04-19T03:45:37.955Z,52.40
2019-04-19T03:50:34.160Z,52.70
2019-04-19T03:53:06.907Z,52.70
2019-04-19T03:55:36.066Z,52.80
2019-04-19T03:57:59.559Z,52.80
2019-04-19T04:00:21.559Z,52.70
2019-04-19T04:02:51.645Z,52.80
2019-04-19T04:05:24.279Z,52.90
2019-04-19T04:08:02.339Z,53.20
2019-04-19T04:10:36.082Z,53.30
2019-04-19T04:13:24.347Z,53.50
2019-04-19T04:16:04.861Z,53.20
2019-04-19T04:18:20.120Z,53.70
2019-04-19T04:20:53.810Z,53.60
2019-04-19T04:23:28.454Z,53.90
2019-04-19T04:25:59.093Z,53.60
2019-04-19T04:28:33.969Z,53.60
2019-04-19T04:31:05.847Z,53.70
2019-04-19T04:33:36.234Z,53.60
2019-04-19T04:36:16.711Z,53.90
2019-04-19T04:38:32.700Z,53.90
2019-04-19T04:41:01.278Z,54.00
2019-04-19T04:43:41.133Z,53.90
2019-04-19T04:46:29.196Z,53.90
2019-04-19T04:48:53.054Z,54.00
2019-04-19T04:51:33.526Z,53.80
2019-04-19T04:53:51.729Z,54.00
2019-04-19T04:56:49.854Z,54.00
2019-04-19T04:59:11.394Z,54.20
2019-04-19T05:01:46.427Z,54.20
2019-04-19T05:04:19.705Z,54.00
2019-04-19T05:06:59.334Z,54.20
2019-04-19T05:09:28.039Z,54.40
2019-04-19T05:12:10.883Z,54.30
2019-04-19T05:14:32.613Z,54.30
2019-04-19T05:17:15.243Z,54.20
2019-04-19T05:19:41.651Z,53.80
2019-04-19T05:22:09.674Z,54.00
2019-04-19T05:24:46.936Z,53.80
2019-04-19T05:27:08.889Z,54.00
2019-04-19T05:29:29.301Z,53.80
2019-04-19T05:31:53.334Z,53.80
2019-04-19T05:34:44.147Z,54.00
2019-04-19T05:37:15.028Z,53.70
2019-04-19T05:39:54.503Z,53.60
2019-04-19T05:42:43.171Z,53.60
2019-04-19T05:45:29.903Z,53.50
2019-04-19T05:47:36.992Z,53.50
2019-04-19T05:50:20.166Z,54.20
2019-04-19T05:52:42.841Z,53.40
2019-04-19T05:54:57.981Z,53.50
2019-04-19T05:57:49.036Z,53.70
2019-04-19T06:00:14.095Z,53.60
2019-04-19T06:02:37.474Z,53.00
2019-04-19T06:05:22.298Z,53.40
2019-04-19T06:07:45.537Z,52.90
2019-04-19T06:10:06.549Z,53.00
2019-04-19T06:12:38.675Z,52.90
2019-04-19T06:15:29.960Z,53.20
2019-04-19T06:18:10.729Z,52.80
2019-04-19T06:20:44.775Z,52.70
2019-04-19T06:23:19.001Z,53.00
2019-04-19T06:26:04.839Z,52.90
2019-04-19T06:30:53.478Z,53.10
2019-04-19T06:33:22.754Z,52.50
2019-04-19T06:35:43.845Z,52.30
2019-04-19T06:38:05.537Z,52.70
2019-04-19T06:40:37.895Z,53.00
2019-04-19T06:43:14.266Z,52.50
2019-04-19T06:45:53.242Z,52.70
2019-04-19T06:48:14.989Z,52.40
2019-04-19T06:50:44.828Z,52.20
2019-04-19T06:53:12.263Z,52.10
2019-04-19T06:55:47.797Z,52.50
2019-04-19T06:58:19.376Z,51.90
2019-04-19T07:00:57.234Z,51.90
2019-04-19T07:03:16.112Z,51.90
2019-04-19T07:06:03.984Z,52.10
2019-04-19T07:08:59.383Z,51.40
2019-04-19T07:11:11.262Z,51.60
2019-04-19T07:13:32.590Z,50.70
2019-04-19T07:16:16.943Z,50.60
2019-04-19T07:18:33.847Z,50.50
2019-04-19T07:21:12.581Z,51.30
2019-04-19T07:23:45.319Z,51.30
2019-04-19T07:26:15.561Z,50.20
2019-04-19T07:28:31.641Z,50.30
2019-04-19T07:31:02.741Z,50.60
2019-04-19T07:33:41.439Z,50.60
2019-04-19T07:36:40.208Z,51.00
2019-04-19T07:39:09.462Z,50.90
2019-04-19T07:41:40.660Z,51.10
2019-04-19T07:44:17.371Z,50.00
2019-04-19T07:47:01.067Z,49.80
2019-04-19T07:49:18.954Z,49.80
2019-04-19T07:51:58.326Z,50.70
2019-04-19T07:54:23.100Z,50.20
2019-04-19T07:57:06.580Z,49.90
2019-04-19T08:00:04.462Z,49.60
2019-04-19T08:12:22.626Z,50.60
2019-04-19T08:17:41.592Z,49.70
2019-04-19T08:27:27.504Z,50.20
2019-04-19T08:29:43.811Z,50.20
2019-04-19T08:32:09.115Z,50.00
2019-04-19T08:34:39.482Z,49.70
2019-04-19T08:37:19.069Z,48.80
2019-04-19T08:39:53.842Z,49.60
2019-04-19T08:42:31.087Z,49.30
2019-04-19T08:44:55.232Z,49.20
2019-04-19T08:47:40.625Z,49.40
2019-04-19T08:50:13.426Z,49.40
2019-04-19T08:52:41.720Z,49.00
2019-04-19T08:55:33.722Z,48.60
2019-04-19T08:57:51.034Z,48.50
2019-04-19T09:00:45.050Z,49.20
2019-04-19T09:03:00.479Z,50.90
2019-04-19T09:05:30.992Z,48.70
2019-04-19T09:08:04.819Z,48.60
2019-04-19T09:10:43.270Z,48.90
2019-04-19T09:13:19.754Z,48.30
2019-04-19T09:15:37.439Z,48.40
2019-04-19T09:20:44.202Z,48.60
2019-04-19T09:23:12.785Z,48.70
2019-04-19T09:25:43.549Z,47.90
2019-04-19T09:28:31.228Z,47.40
2019-04-19T09:30:50.776Z,48.30
2019-04-19T09:33:09.828Z,47.40
2019-04-19T09:35:41.027Z,46.90
2019-04-19T09:38:17.460Z,47.10
2019-04-19T09:40:47.812Z,46.40
2019-04-19T09:43:24.150Z,46.50
2019-04-19T09:45:40.365Z,46.90
2019-04-19T09:48:30.348Z,46.90
2019-04-19T09:50:54.952Z,46.90
2019-04-19T09:53:43.206Z,45.90
2019-04-19T09:56:03.245Z,45.70
2019-04-19T09:58:31.904Z,46.40
2019-04-19T10:00:49.035Z,45.10
2019-04-19T10:03:25.622Z,45.10
2019-04-19T10:05:48.675Z,45.00
2019-04-19T10:08:18.158Z,44.60
2019-04-19T10:10:49.070Z,44.60
2019-04-19T10:13:19.583Z,43.20
2019-04-19T10:15:50.650Z,42.10
2019-04-19T10:18:20.830Z,43.10
2019-04-19T10:21:17.714Z,43.40
2019-04-19T10:23:41.325Z,43.70
2019-04-19T10:26:18.343Z,42.00
2019-04-19T10:28:48.785Z,42.30
2019-04-19T10:31:22.747Z,41.50
2019-04-19T10:33:57.805Z,41.60
2019-04-19T10:36:24.446Z,40.60
2019-04-19T10:38:56.536Z,40.80
2019-04-19T10:41:25.279Z,41.30
2019-04-19T10:44:04.255Z,40.50
2019-04-19T10:46:26.861Z,40.00
2019-04-19T10:49:09.250Z,40.10
2019-04-19T10:51:35.516Z,40.50
2019-04-19T10:54:06.396Z,39.20
2019-04-19T10:56:40.631Z,39.60
2019-04-19T10:59:10.290Z,40.20
2019-04-19T11:01:41.158Z,39.20
2019-04-19T11:04:11.036Z,38.30
2019-04-19T11:06:41.664Z,38.50
2019-04-19T11:09:12.409Z,39.10
2019-04-19T11:11:41.923Z,40.00
2019-04-19T11:14:12.207Z,39.70
2019-04-19T11:16:41.949Z,39.20
2019-04-19T11:19:19.331Z,40.10
2019-04-19T11:21:43.476Z,38.60
2019-04-19T11:24:13.795Z,37.90
2019-04-19T11:26:43.615Z,37.70
2019-04-19T11:29:13.590Z,37.50
2019-04-19T11:31:59.871Z,36.70
2019-04-19T11:34:31.374Z,37.50
2019-04-19T11:37:01.982Z,37.90
2019-04-19T11:39:32.756Z,37.20
2019-04-19T11:42:03.260Z,37.50
2019-04-19T11:44:33.295Z,36.90
2019-04-19T11:47:04.944Z,37.30
2019-04-19T11:49:38.755Z,37.40
2019-04-19T11:52:08.198Z,37.40
2019-04-19T11:54:38.530Z,36.50
2019-04-19T11:57:16.556Z,35.90
2019-04-19T11:59:51.918Z,36.00
2019-04-19T12:02:25.680Z,35.30
2019-04-19T12:04:54.618Z,36.10
2019-04-19T12:07:24.319Z,36.80
2019-04-19T12:09:54.496Z,36.30
2019-04-19T12:12:25.326Z,35.60
2019-04-19T12:14:55.646Z,36.20
2019-04-19T12:17:25.348Z,36.70
2019-04-19T12:20:00.074Z,35.80
2019-04-19T12:22:25.811Z,36.00
2019-04-19T12:24:55.494Z,36.10
2019-04-19T12:27:25.662Z,36.30
2019-04-19T12:29:56.937Z,35.60
2019-04-19T12:32:41.504Z,36.00
2019-04-19T12:35:11.210Z,34.70
2019-04-19T12:37:40.895Z,36.00
2019-04-19T12:40:10.938Z,34.50
2019-04-19T12:42:40.379Z,33.90
2019-04-19T12:45:13.288Z,35.40
2019-04-19T12:47:42.887Z,35.80
2019-04-19T12:50:14.737Z,35.00
2019-04-19T12:52:44.510Z,35.00
2019-04-19T12:55:15.298Z,36.30
2019-04-19T12:57:47.916Z,34.30
2019-04-19T13:00:18.560Z,34.00
2019-04-19T13:03:00.011Z,34.40
2019-04-19T13:05:35.228Z,35.40
2019-04-19T13:08:05.329Z,34.70
2019-04-19T13:10:35.373Z,34.30
2019-04-19T13:13:05.689Z,34.70
2019-04-19T13:15:36.389Z,34.50
2019-04-19T13:18:06.529Z,35.20
2019-04-19T13:20:37.495Z,33.80
2019-04-19T13:23:08.529Z,34.20
2019-04-19T13:25:39.404Z,34.60
2019-04-19T13:28:08.909Z,35.10
2019-04-19T13:30:44.267Z,34.60
2019-04-19T13:33:10.347Z,35.80
2019-04-19T13:35:41.503Z,35.10
2019-04-19T13:38:28.910Z,35.80
2019-04-19T13:41:16.730Z,35.50
2019-04-19T13:43:47.304Z,35.00
2019-04-19T13:46:16.998Z,34.60
2019-04-19T13:48:46.400Z,35.00
2019-04-19T13:51:16.476Z,34.60
2019-04-19T13:53:46.873Z,35.40
2019-04-19T13:56:16.822Z,35.00
2019-04-19T13:58:47.509Z,34.60
2019-04-19T14:01:18.498Z,35.20
2019-04-19T14:03:48.395Z,34.60
2019-04-19T14:06:18.442Z,34.70
2019-04-19T14:08:48.986Z,35.60
2019-04-19T14:11:19.395Z,35.70
2019-04-19T14:13:53.533Z,34.90
2019-04-19T14:16:20.072Z,35.20
2019-04-19T14:18:50.787Z,35.00
2019-04-19T14:21:21.931Z,35.80
2019-04-19T14:23:51.635Z,35.70
2019-04-19T14:26:32.394Z,36.40
2019-04-19T14:28:52.122Z,35.90
2019-04-19T14:31:21.939Z,36.00
2019-04-19T14:33:52.919Z,35.10
2019-04-19T14:36:22.586Z,35.70
2019-04-19T14:38:52.794Z,36.50
2019-04-19T14:41:23.214Z,35.70
2019-04-19T14:43:52.746Z,36.50
2019-04-19T14:46:22.692Z,35.60
2019-04-19T14:48:53.070Z,35.20
2019-04-19T14:51:27.977Z,35.30
2019-04-19T14:53:53.785Z,36.20
2019-04-19T14:56:23.859Z,35.10
2019-04-19T14:58:53.533Z,34.10
2019-04-19T15:01:24.912Z,34.50
2019-04-19T15:04:06.589Z,34.60
2019-04-19T15:06:37.579Z,34.90
2019-04-19T15:09:07.969Z,35.00
2019-04-19T15:11:37.406Z,35.30
2019-04-19T15:14:08.219Z,34.70
2019-04-19T15:16:39.301Z,34.20
2019-04-19T15:19:08.851Z,34.10
2019-04-19T15:21:38.541Z,34.30
2019-04-19T15:24:08.620Z,34.70
2019-04-19T15:26:38.597Z,34.50
2019-04-19T15:29:09.011Z,34.90
2019-04-19T15:31:38.718Z,34.70
2019-04-19T15:34:09.243Z,35.10
2019-04-19T15:36:39.745Z,34.70
2019-04-19T15:39:11.629Z,34.60
2019-04-19T15:41:42.169Z,34.40
2019-04-19T15:44:12.672Z,33.50
2019-04-19T15:46:42.368Z,33.10
2019-04-19T15:49:12.251Z,33.50
2019-04-19T15:51:43.126Z,33.10
2019-04-19T15:54:14.180Z,33.20
2019-04-19T15:56:44.596Z,32.40
2019-04-19T15:59:15.335Z,32.40
2019-04-19T16:01:52.680Z,32.50
2019-04-19T16:04:32.597Z,33.30
2019-04-19T16:07:10.263Z,33.30
2019-04-19T16:09:54.588Z,33.50
2019-04-19T16:12:29.415Z,33.80
2019-04-19T16:14:59.859Z,33.70
2019-04-19T16:17:29.424Z,33.70
2019-04-19T16:19:59.647Z,33.80
2019-04-19T16:22:30.187Z,33.10
2019-04-19T16:25:00.958Z,33.90
2019-04-19T16:27:31.469Z,33.70
2019-04-19T16:30:03.162Z,33.90
2019-04-19T16:32:32.898Z,33.10
2019-04-19T16:35:03.541Z,31.90
2019-04-19T16:37:33.254Z,31.90
2019-04-19T16:40:02.768Z,32.20
2019-04-19T16:42:32.102Z,32.50
2019-04-19T16:45:02.008Z,32.60
2019-04-19T16:47:31.495Z,33.00
2019-04-19T16:50:00.842Z,32.20
2019-04-19T16:52:31.018Z,32.70
2019-04-19T16:55:00.749Z,32.10
2019-04-19T16:57:31.743Z,32.50
2019-04-19T17:00:02.111Z,32.10
2019-04-19T17:02:33.019Z,32.30
2019-04-19T17:05:03.097Z,32.00
2019-04-19T17:07:32.654Z,31.90
2019-04-19T17:10:02.106Z,32.30
2019-04-19T17:12:32.705Z,32.40
2019-04-19T17:15:06.542Z,32.00
2019-04-19T17:17:38.516Z,31.70
2019-04-19T17:20:21.677Z,32.10
2019-04-19T17:22:51.014Z,32.40
2019-04-19T17:25:21.097Z,32.50
2019-04-19T17:27:52.701Z,32.80
2019-04-19T17:30:26.237Z,32.90
2019-04-19T17:32:57.921Z,32.80
2019-04-19T17:35:27.848Z,33.50
2019-04-19T17:37:58.236Z,33.50
2019-04-19T17:40:28.936Z,33.70
2019-04-19T17:42:59.183Z,33.70
2019-04-19T17:45:29.508Z,33.90
2019-04-19T17:47:59.094Z,34.50
2019-04-19T17:50:29.009Z,34.50
2019-04-19T17:52:58.447Z,34.10
2019-04-19T17:55:34.942Z,34.30
2019-04-19T17:57:59.105Z,34.90
2019-04-19T18:00:30.273Z,34.90
2019-04-19T18:02:59.784Z,36.80
2019-04-19T18:05:29.781Z,37.20
2019-04-19T18:08:00.200Z,37.50
2019-04-19T18:10:36.386Z,38.00
2019-04-19T18:13:01.280Z,39.70
2019-04-19T18:15:31.826Z,39.40
2019-04-19T18:18:04.212Z,39.60
2019-04-19T18:20:32.882Z,40.70
2019-04-19T18:23:08.717Z,41.20
2019-04-19T18:25:37.071Z,41.00
2019-04-19T18:28:08.997Z,41.20
2019-04-19T18:30:43.043Z,41.80
2019-04-19T18:33:20.495Z,42.50
2019-04-19T18:35:52.185Z,41.40
2019-04-19T18:38:23.273Z,42.70
2019-04-19T18:40:53.240Z,42.20
2019-04-19T18:43:34.555Z,42.20
2019-04-19T18:45:54.931Z,42.70
2019-04-19T18:48:24.527Z,42.70
2019-04-19T18:50:54.067Z,43.50
2019-04-19T18:53:34.478Z,44.10
2019-04-19T18:55:56.759Z,43.40
2019-04-19T18:58:30.240Z,43.60
2019-04-19T19:00:56.996Z,43.20
2019-04-19T19:03:32.460Z,43.90
2019-04-19T19:06:01.031Z,44.90
2019-04-19T19:08:31.423Z,44.60
2019-04-19T19:11:04.229Z,44.60
2019-04-19T19:13:35.065Z,44.20
2019-04-19T19:16:02.317Z,44.20
2019-04-19T19:18:36.337Z,44.30
2019-04-19T19:21:04.799Z,44.90
2019-04-19T19:23:45.599Z,44.30
2019-04-19T19:26:16.126Z,44.40
2019-04-19T19:28:36.458Z,45.00
2019-04-19T19:31:07.081Z,44.60
2019-04-19T19:33:44.281Z,45.30
2019-04-19T19:36:09.804Z,44.80
2019-04-19T19:38:41.645Z,45.30
2019-04-19T19:41:27.177Z,45.70
2019-04-19T19:43:55.032Z,45.40
2019-04-19T19:46:32.741Z,45.40
2019-04-19T19:51:32.275Z,46.30
2019-04-19T19:54:32.467Z,45.50
2019-04-19T19:59:05.414Z,45.60
2019-04-19T20:01:30.400Z,45.70
2019-04-19T20:03:52.452Z,46.50
2019-04-19T20:06:25.835Z,47.00
2019-04-19T20:08:55.797Z,46.30
2019-04-19T20:11:28.420Z,46.50
2019-04-19T20:13:59.113Z,46.40
2019-04-19T20:16:29.933Z,47.40
2019-04-19T20:18:59.107Z,47.50
2019-04-19T20:21:28.464Z,48.10
2019-04-19T20:24:08.391Z,47.70
2019-04-19T20:26:35.930Z,47.10
2019-04-19T20:29:08.583Z,46.70
2019-04-19T20:31:35.861Z,44.80
2019-04-19T20:34:03.722Z,43.60
2019-04-19T20:36:36.175Z,43.20
2019-04-19T20:39:07.709Z,43.30
2019-04-19T20:41:43.126Z,44.10
2019-04-19T20:44:29.012Z,43.50
2019-04-19T20:46:39.990Z,42.50
2019-04-19T20:49:10.366Z,42.40
2019-04-19T20:51:53.637Z,43.50
2019-04-19T20:54:41.170Z,44.20
2019-04-19T20:57:10.575Z,43.20
2019-04-19T20:59:34.916Z,43.10
2019-04-19T21:01:52.844Z,43.20
2019-04-19T21:04:23.014Z,42.60
2019-04-19T21:06:53.738Z,42.50
2019-04-19T21:09:27.991Z,42.90
2019-04-19T21:11:54.492Z,43.60
2019-04-19T21:14:32.333Z,43.70
2019-04-19T21:17:00.165Z,44.70
2019-04-19T21:19:26.581Z,44.40
2019-04-19T21:21:58.156Z,44.20
2019-04-19T21:24:32.442Z,44.30
2019-04-19T21:27:03.760Z,43.80
2019-04-19T21:29:33.242Z,44.30
2019-04-19T21:32:01.270Z,44.40
2019-04-19T21:34:34.934Z,44.30
2019-04-19T21:37:05.170Z,44.70
2019-04-19T21:39:39.107Z,44.70
2019-04-19T21:42:08.045Z,45.20
2019-04-19T21:44:36.637Z,45.00
2019-04-19T21:47:09.394Z,45.40
2019-04-19T21:49:37.394Z,46.00
2019-04-19T21:52:13.807Z,45.40
2019-04-19T21:54:38.764Z,45.50
2019-04-19T21:57:09.001Z,45.70
2019-04-19T21:59:40.689Z,46.20
2019-04-19T22:02:11.202Z,46.20
2019-04-19T22:04:47.081Z,46.40
2019-04-19T22:07:12.753Z,46.00
2019-04-19T22:09:51.498Z,46.20
2019-04-19T22:12:14.497Z,46.00
2019-04-19T22:14:44.536Z,46.10
2019-04-19T22:17:19.298Z,45.80
2019-04-19T22:19:45.727Z,46.00
2019-04-19T22:22:23.180Z,46.50
2019-04-19T22:24:47.728Z,46.60
2019-04-19T22:27:17.878Z,46.60
2019-04-19T22:29:47.402Z,46.20
2019-04-19T22:32:20.205Z,46.20
2019-04-19T22:34:48.450Z,46.20
2019-04-19T22:37:33.971Z,46.50
2019-04-19T22:40:02.933Z,46.30
2019-04-19T22:42:36.840Z,46.60
2019-04-19T22:45:05.962Z,46.10
2019-04-19T22:47:35.437Z,46.20
2019-04-19T22:50:11.862Z,46.20
2019-04-19T22:52:38.523Z,46.40
2019-04-19T22:55:14.039Z,46.60
2019-04-19T22:57:48.611Z,46.10
2019-04-19T23:00:11.894Z,46.20
2019-04-19T23:02:59.001Z,46.40
2019-04-19T23:05:35.322Z,46.60
2019-04-19T23:08:04.722Z,46.40
2019-04-19T23:10:41.915Z,46.50
2019-04-19T23:13:20.327Z,46.50
2019-04-19T23:15:53.141Z,46.80
2019-04-19T23:18:23.220Z,46.60
2019-04-19T23:20:57.661Z,46.80
2019-04-19T23:23:28.015Z,46.90
2019-04-19T23:26:11.428Z,47.10
2019-04-19T23:28:31.739Z,47.00
2019-04-19T23:30:59.385Z,46.90
2019-04-19T23:33:28.230Z,47.10
2019-04-19T23:35:57.643Z,47.10
2019-04-19T23:38:29.735Z,47.10
2019-04-19T23:40:59.178Z,47.20
2019-04-19T23:43:33.872Z,47.30
2019-04-19T23:46:01.193Z,47.40
2019-04-19T23:48:32.367Z,47.70
2019-04-19T23:51:02.166Z,47.50
2019-04-19T23:53:37.319Z,47.60
2019-04-19T23:56:02.770Z,47.70
2019-04-19T23:58:37.231Z,47.60
